Time;durP1;ratioP1;P1;durP2;ratioP2;P2;SDS_P1;SDS_P2;PMS_P1;PMS_P2;Temp;Humidity;BMP_temperature;BMP_pressure;BME280_temperature;BME280_humidity;BME280_pressure;Samples;Min_cycle;Max_cycle;Signal;HPM_P1;HPM_P2
2023/06/30 00:02:04;;;;;;;8.20;7.30;;;20.30;99.90;;;;;;5058850;28;20266;-61
2023/06/30 00:04:32;;;;;;;15.38;7.93;;;20.30;99.90;;;;;;5071538;28;20314;-61
2023/06/30 00:07:01;;;;;;;11.75;7.95;;;20.30;99.90;;;;;;5056163;28;20212;-61
2023/06/30 00:09:29;;;;;;;16.70;7.78;;;20.20;99.90;;;;;;5054615;28;20224;-61
2023/06/30 00:11:57;;;;;;;12.15;7.63;;;20.20;99.90;;;;;;5066993;28;20293;-60
2023/06/30 00:14:26;;;;;;;9.15;7.60;;;20.20;99.90;;;;;;5051284;28;20684;-60
2023/06/30 00:16:56;;;;;;;12.45;8.10;;;20.10;99.90;;;;;;5051222;28;20237;-61
2023/06/30 00:19:25;;;;;;;11.20;7.50;;;20.10;99.90;;;;;;5053186;28;20241;-60
2023/06/30 00:21:54;;;;;;;11.52;8.10;;;20.10;99.90;;;;;;5065466;28;20209;-60
2023/06/30 00:24:21;;;;;;;10.07;7.25;;;20.10;99.90;;;;;;5061576;28;20220;-61
2023/06/30 00:26:50;;;;;;;9.68;7.45;;;20.10;99.90;;;;;;5071150;28;20240;-60
2023/06/30 00:29:18;;;;;;;9.55;7.43;;;20.10;99.90;;;;;;5056529;28;20217;-60
2023/06/30 00:31:47;;;;;;;12.40;7.57;;;20.10;99.90;;;;;;5051635;28;20194;-60
2023/06/30 00:34:15;;;;;;;8.85;7.28;;;20.10;99.90;;;;;;5051093;28;20201;-60
2023/06/30 00:36:43;;;;;;;12.32;7.95;;;20.10;99.90;;;;;;5050951;28;20700;-60
2023/06/30 00:39:11;;;;;;;10.57;8.27;;;20.10;99.90;;;;;;5051036;28;20265;-60
2023/06/30 00:41:39;;;;;;;14.00;7.90;;;20.10;99.90;;;;;;5054281;28;20205;-60
2023/06/30 00:44:07;;;;;;;8.38;7.50;;;20.20;99.90;;;;;;5051113;28;20205;-61
2023/06/30 00:46:35;;;;;;;9.77;7.30;;;20.20;99.90;;;;;;5059913;28;20640;-61
2023/06/30 00:49:04;;;;;;;10.63;7.38;;;20.20;99.90;;;;;;5039840;28;20225;-62
2023/06/30 00:51:32;;;;;;;9.82;8.07;;;20.20;99.90;;;;;;5054291;28;20245;-60
2023/06/30 00:54:00;;;;;;;10.40;8.20;;;20.20;99.90;;;;;;5051067;28;20240;-61
2023/06/30 00:56:28;;;;;;;10.90;7.57;;;20.20;99.90;;;;;;5061850;28;20197;-60
2023/06/30 00:58:57;;;;;;;9.00;7.40;;;20.20;99.90;;;;;;5054603;28;20276;-60
2023/06/30 01:01:27;;;;;;;11.40;7.25;;;20.30;99.90;;;;;;5051265;28;20205;-61
2023/06/30 01:04:00;;;;;;;10.80;7.25;;;20.30;99.90;;;;;;5051009;28;20255;-60
2023/06/30 01:06:31;;;;;;;11.57;7.60;;;20.30;99.90;;;;;;5053841;28;20285;-60
2023/06/30 01:09:02;;;;;;;9.32;7.80;;;20.30;99.90;;;;;;5061201;28;20274;-60
2023/06/30 01:11:29;;;;;;;10.38;7.75;;;20.30;99.90;;;;;;5054583;28;20201;-61
2023/06/30 01:13:57;;;;;;;11.40;6.93;;;20.30;99.90;;;;;;5068805;28;20189;-61
2023/06/30 01:16:26;;;;;;;11.82;7.43;;;20.40;99.90;;;;;;5050758;28;20652;-61
2023/06/30 01:18:54;;;;;;;19.60;7.80;;;20.40;99.90;;;;;;5058774;22;20635;-76
2023/06/30 01:21:22;;;;;;;9.35;8.15;;;20.40;99.90;;;;;;5051612;28;20240;-79
2023/06/30 01:23:53;;;;;;;10.55;7.60;;;20.40;99.90;;;;;;5051913;28;20341;-77
2023/06/30 01:26:21;;;;;;;8.20;7.10;;;20.40;99.90;;;;;;5051313;28;20236;-76
2023/06/30 01:28:50;;;;;;;18.38;7.70;;;20.40;99.90;;;;;;5051757;28;20202;-78
2023/06/30 01:31:20;;;;;;;16.52;7.30;;;20.40;99.90;;;;;;5051898;28;20200;-75
2023/06/30 01:33:48;;;;;;;11.18;7.90;;;20.40;99.90;;;;;;5048618;28;20773;-75
2023/06/30 01:36:16;;;;;;;11.15;7.93;;;20.40;99.90;;;;;;5051160;28;20201;-75
2023/06/30 01:38:44;;;;;;;8.02;7.00;;;20.40;99.90;;;;;;5051444;28;20625;-75
2023/06/30 01:41:13;;;;;;;8.10;7.25;;;20.40;99.90;;;;;;5051218;28;20190;-76
2023/06/30 01:43:41;;;;;;;9.90;7.30;;;20.30;99.90;;;;;;5051410;28;20665;-75
2023/06/30 01:46:09;;;;;;;7.57;6.78;;;20.30;99.90;;;;;;5050438;28;20344;-80
2023/06/30 01:48:37;;;;;;;10.02;7.03;;;20.30;99.90;;;;;;5050792;28;20208;-75
2023/06/30 01:51:05;;;;;;;10.60;7.30;;;20.30;99.90;;;;;;5051726;28;20198;-75
2023/06/30 01:53:33;;;;;;;9.23;7.43;;;20.30;99.90;;;;;;5051078;28;20311;-77
2023/06/30 01:56:01;;;;;;;7.90;6.90;;;20.30;99.90;;;;;;5050486;28;20610;-75
2023/06/30 01:58:31;;;;;;;9.77;6.50;;;20.30;99.90;;;;;;5051299;28;20273;-77
2023/06/30 02:00:59;;;;;;;7.18;6.47;;;20.30;99.90;;;;;;5051313;28;20683;-76
2023/06/30 02:03:27;;;;;;;9.65;6.72;;;20.30;99.90;;;;;;5053700;28;20240;-75
2023/06/30 02:05:55;;;;;;;10.27;6.85;;;20.30;99.90;;;;;;5053375;28;20272;-75
2023/06/30 02:08:23;;;;;;;10.73;6.97;;;20.30;99.90;;;;;;5053831;28;20191;-75
2023/06/30 02:10:51;;;;;;;10.30;6.72;;;20.30;99.90;;;;;;5053978;28;20559;-75
2023/06/30 02:13:19;;;;;;;11.20;6.88;;;20.30;99.90;;;;;;5053639;28;20264;-75
2023/06/30 02:15:48;;;;;;;7.65;6.82;;;20.30;99.90;;;;;;5053142;28;20193;-75
2023/06/30 02:18:16;;;;;;;10.27;6.90;;;20.30;99.90;;;;;;5053426;28;20248;-76
2023/06/30 02:20:44;;;;;;;9.50;6.88;;;20.30;99.90;;;;;;5053845;28;20209;-75
2023/06/30 02:23:12;;;;;;;8.32;6.30;;;20.30;99.90;;;;;;5053477;28;20259;-76
2023/06/30 02:25:40;;;;;;;6.82;6.20;;;20.30;99.90;;;;;;5053092;28;20229;-77
2023/06/30 02:28:08;;;;;;;10.15;6.43;;;20.30;99.90;;;;;;5053232;28;20583;-77
2023/06/30 02:30:36;;;;;;;8.55;6.43;;;20.20;99.90;;;;;;5053737;28;20222;-75
2023/06/30 02:33:05;;;;;;;9.30;5.70;;;20.20;99.90;;;;;;5053352;28;20221;-76
2023/06/30 02:35:33;;;;;;;9.32;6.50;;;20.20;99.90;;;;;;5052824;28;20225;-76
2023/06/30 02:38:03;;;;;;;9.98;6.15;;;20.20;99.90;;;;;;5053217;28;20311;-75
2023/06/30 02:40:31;;;;;;;7.80;6.20;;;20.20;99.90;;;;;;5052886;28;20719;-76
2023/06/30 02:42:59;;;;;;;9.23;6.25;;;20.30;99.90;;;;;;5053366;28;20646;-75
2023/06/30 02:45:27;;;;;;;9.43;6.25;;;20.30;99.90;;;;;;5052544;28;20193;-76
2023/06/30 02:47:54;;;;;;;6.70;5.50;;;20.30;99.90;;;;;;5053104;28;20247;-75
2023/06/30 02:50:28;;;;;;;11.73;6.50;;;20.30;99.90;;;;;;5052892;28;20612;-75
2023/06/30 02:52:56;;;;;;;10.80;6.18;;;20.30;99.90;;;;;;5052689;28;20267;-75
2023/06/30 02:55:24;;;;;;;9.50;6.22;;;20.30;99.90;;;;;;5051993;28;20734;-75
2023/06/30 02:57:52;;;;;;;8.60;5.72;;;20.30;99.90;;;;;;5053116;28;20232;-75
2023/06/30 03:00:20;;;;;;;9.60;5.95;;;20.30;99.90;;;;;;5052847;28;20214;-75
2023/06/30 03:02:48;;;;;;;7.68;5.88;;;20.30;99.90;;;;;;5050993;28;20710;-75
2023/06/30 03:05:16;;;;;;;8.02;6.38;;;20.30;99.90;;;;;;5049393;28;20189;-75
2023/06/30 03:07:46;;;;;;;7.00;6.05;;;20.30;99.90;;;;;;5050643;28;20224;-75
2023/06/30 03:10:13;;;;;;;11.07;6.25;;;20.30;99.90;;;;;;5049900;28;20269;-76
2023/06/30 03:12:41;;;;;;;9.75;6.57;;;20.30;99.90;;;;;;5049845;28;20280;-77
2023/06/30 03:15:11;;;;;;;9.18;6.53;;;20.40;99.90;;;;;;5049591;28;20369;-75
2023/06/30 03:17:38;;;;;;;11.07;6.43;;;20.40;99.90;;;;;;5049785;28;20247;-75
2023/06/30 03:20:10;;;;;;;7.75;6.95;;;20.40;99.90;;;;;;5049720;28;20206;-75
2023/06/30 03:22:39;;;;;;;8.90;6.30;;;20.30;99.90;;;;;;5049942;28;20312;-77
2023/06/30 03:25:09;;;;;;;9.88;6.90;;;20.40;99.90;;;;;;5048960;28;20233;-75
2023/06/30 03:27:37;;;;;;;14.80;10.60;;;20.30;99.90;;;;;;5049958;28;20279;-74
2023/06/30 03:30:07;;;;;;;18.50;11.25;;;20.30;99.90;;;;;;5049375;28;20655;-75
2023/06/30 03:32:35;;;;;;;19.40;13.15;;;20.30;99.90;;;;;;5049205;28;20261;-79
2023/06/30 03:35:03;;;;;;;21.23;13.77;;;20.30;99.90;;;;;;5048773;28;20201;-75
2023/06/30 03:37:31;;;;;;;20.77;15.13;;;20.30;99.90;;;;;;5049408;28;20289;-76
2023/06/30 03:40:02;;;;;;;21.65;15.27;;;20.30;99.90;;;;;;5049230;28;20240;-80
2023/06/30 03:42:31;;;;;;;22.13;15.02;;;20.30;99.90;;;;;;5048723;28;20248;-75
2023/06/30 03:45:00;;;;;;;25.52;15.77;;;20.30;99.90;;;;;;5048315;28;20643;-75
2023/06/30 03:47:28;;;;;;;23.08;15.35;;;20.30;99.90;;;;;;5049488;28;20236;-75
2023/06/30 03:49:55;;;;;;;23.85;16.58;;;20.30;99.90;;;;;;5049444;28;20197;-75
2023/06/30 03:52:23;;;;;;;24.08;16.58;;;20.30;99.90;;;;;;5049161;28;20221;-75
2023/06/30 03:54:52;;;;;;;19.48;16.25;;;20.30;99.90;;;;;;5048651;28;20225;-75
2023/06/30 03:57:19;;;;;;;29.10;17.55;;;20.30;99.90;;;;;;5049241;28;20235;-75
2023/06/30 03:59:49;;;;;;;23.42;16.63;;;20.30;99.90;;;;;;5049145;28;20193;-77
2023/06/30 04:02:17;;;;;;;29.15;18.35;;;20.30;99.90;;;;;;5048734;28;20312;-75
2023/06/30 04:04:45;;;;;;;26.40;17.27;;;20.30;99.90;;;;;;5048043;28;20888;-75
2023/06/30 04:07:13;;;;;;;26.23;17.77;;;20.30;99.90;;;;;;5049161;28;20200;-75
2023/06/30 04:09:41;;;;;;;26.25;18.27;;;20.30;99.90;;;;;;5049143;28;20208;-75
2023/06/30 04:12:09;;;;;;;27.42;19.15;;;20.30;99.90;;;;;;5048783;28;20225;-75
2023/06/30 04:14:37;;;;;;;33.72;21.75;;;20.30;99.90;;;;;;5048324;28;20221;-77
2023/06/30 04:17:07;;;;;;;32.45;20.98;;;20.40;99.90;;;;;;5048817;28;20752;-80
2023/06/30 04:19:35;;;;;;;33.83;21.17;;;20.30;99.90;;;;;;5048781;28;20213;-75
2023/06/30 04:22:03;;;;;;;32.33;19.77;;;20.30;99.90;;;;;;5048934;28;20213;-75
2023/06/30 04:24:32;;;;;;;27.30;18.95;;;20.40;99.90;;;;;;5046194;28;20563;-76
2023/06/30 04:27:00;;;;;;;24.73;18.90;;;20.40;99.90;;;;;;5047778;28;20194;-75
2023/06/30 04:29:28;;;;;;;26.85;18.90;;;20.40;99.90;;;;;;5048207;28;20225;-77
2023/06/30 04:31:56;;;;;;;27.40;18.40;;;20.40;99.90;;;;;;5048649;28;20709;-75
2023/06/30 04:34:25;;;;;;;25.63;17.20;;;20.40;99.90;;;;;;5048250;28;20686;-76
2023/06/30 04:36:53;;;;;;;23.75;16.48;;;20.40;99.90;;;;;;5047909;28;20229;-75
2023/06/30 04:39:21;;;;;;;19.52;15.57;;;20.40;99.90;;;;;;5047801;28;20742;-75
2023/06/30 04:41:49;;;;;;;20.48;14.20;;;20.40;99.90;;;;;;5048196;28;20316;-75
2023/06/30 04:44:16;;;;;;;24.38;13.65;;;20.40;99.90;;;;;;5047847;28;20736;-75
2023/06/30 04:46:44;;;;;;;22.23;13.93;;;20.40;99.90;;;;;;5047797;28;20236;-75
2023/06/30 04:49:12;;;;;;;24.27;14.70;;;20.40;99.90;;;;;;5047782;28;20209;-78
2023/06/30 04:51:41;;;;;;;24.00;14.73;;;20.40;99.90;;;;;;5046248;28;20289;-79
2023/06/30 04:54:09;;;;;;;23.42;15.30;;;20.50;99.90;;;;;;5048504;28;20606;-75
2023/06/30 04:56:37;;;;;;;28.75;18.83;;;20.50;99.90;;;;;;5053884;28;20313;-75
2023/06/30 04:59:05;;;;;;;28.65;18.92;;;20.50;99.90;;;;;;5052090;28;20739;-76
2023/06/30 05:01:33;;;;;;;29.63;18.77;;;20.50;99.90;;;;;;5051692;28;20657;-75
2023/06/30 05:04:01;;;;;;;29.13;19.83;;;20.50;99.90;;;;;;5051783;28;20295;-75
2023/06/30 05:06:29;;;;;;;28.38;19.17;;;20.60;99.90;;;;;;5050770;28;20663;-76
2023/06/30 05:08:58;;;;;;;29.17;18.58;;;20.60;99.90;;;;;;5051872;28;20206;-76
2023/06/30 05:11:26;;;;;;;36.88;24.15;;;20.60;99.90;;;;;;5051661;28;20276;-75
2023/06/30 05:13:54;;;;;;;39.08;23.77;;;20.60;99.90;;;;;;5053445;28;20312;-75
2023/06/30 05:16:22;;;;;;;44.08;29.35;;;20.60;99.90;;;;;;5060994;28;20262;-77
2023/06/30 05:18:50;;;;;;;45.55;31.33;;;20.60;99.90;;;;;;5051383;28;20213;-76
2023/06/30 05:21:17;;;;;;;49.53;33.40;;;20.60;99.90;;;;;;5051623;28;20261;-76
2023/06/30 05:23:45;;;;;;;50.47;33.38;;;20.60;99.90;;;;;;5048892;28;20233;-77
2023/06/30 05:26:14;;;;;;;53.13;34.75;;;20.60;99.90;;;;;;5050075;28;20367;-76
2023/06/30 05:28:42;;;;;;;55.63;36.08;;;20.60;99.90;;;;;;5050272;28;20193;-80
2023/06/30 05:31:27;;;;;;;49.67;32.53;;;20.60;99.90;;;;;;5051025;28;20685;-74
2023/06/30 05:33:54;;;;;;;53.03;37.08;;;20.60;99.90;;;;;;5051300;28;20694;-72
2023/06/30 05:36:22;;;;;;;58.13;35.25;;;20.60;99.90;;;;;;5051085;28;20250;-73
2023/06/30 05:38:50;;;;;;;51.45;35.53;;;20.60;99.90;;;;;;5051661;28;20229;-72
2023/06/30 05:41:19;;;;;;;54.72;34.63;;;20.60;99.90;;;;;;5052171;28;20624;-73
2023/06/30 05:43:47;;;;;;;51.13;34.40;;;20.70;99.90;;;;;;5051296;28;20315;-72
2023/06/30 05:46:15;;;;;;;58.53;35.78;;;20.70;99.90;;;;;;5050898;28;20209;-72
2023/06/30 05:48:43;;;;;;;59.05;37.55;;;20.70;99.90;;;;;;5051188;28;20197;-72
2023/06/30 05:51:11;;;;;;;58.90;35.58;;;20.70;99.90;;;;;;5051393;28;20312;-72
2023/06/30 05:53:39;;;;;;;60.55;38.00;;;20.70;99.90;;;;;;5050732;28;20304;-72
2023/06/30 05:56:06;;;;;;;60.45;38.20;;;20.80;99.90;;;;;;5050232;28;20240;-72
2023/06/30 05:58:37;;;;;;;57.60;35.60;;;20.70;99.90;;;;;;5050961;28;20686;-73
2023/06/30 06:01:06;;;;;;;54.72;35.65;;;20.70;99.90;;;;;;5051151;28;20729;-72
2023/06/30 06:03:33;;;;;;;63.38;38.47;;;20.80;99.90;;;;;;5051088;28;20270;-72
2023/06/30 06:06:02;;;;;;;57.95;36.17;;;20.80;99.90;;;;;;5049974;28;20738;-72
2023/06/30 06:08:30;;;;;;;56.17;36.25;;;20.80;99.90;;;;;;5050774;28;20201;-72
2023/06/30 06:10:57;;;;;;;56.55;37.38;;;20.90;99.90;;;;;;5050955;28;20194;-72
2023/06/30 06:13:33;;;;;;;56.38;35.00;;;20.90;99.90;;;;;;5051057;28;20307;-72
2023/06/30 06:16:02;;;;;;;47.78;31.83;;;21.00;99.90;;;;;;5062631;28;20882;-72
2023/06/30 06:18:30;;;;;;;50.42;30.02;;;21.00;99.90;;;;;;5050546;28;20717;-72
2023/06/30 06:20:58;;;;;;;40.65;26.20;;;21.00;99.90;;;;;;5051145;28;20347;-72
2023/06/30 06:23:26;;;;;;;37.30;23.98;;;20.90;99.90;;;;;;5050181;28;20275;-72
2023/06/30 06:25:53;;;;;;;27.70;19.65;;;20.90;99.90;;;;;;5050143;28;20224;-72
2023/06/30 06:28:21;;;;;;;29.25;18.45;;;20.90;99.90;;;;;;5051048;28;20190;-72
2023/06/30 06:30:49;;;;;;;21.35;13.68;;;20.90;99.90;;;;;;5050704;28;20232;-72
2023/06/30 06:33:18;;;;;;;18.08;13.13;;;20.90;99.90;;;;;;5075996;22;20426;-60
2023/06/30 06:35:46;;;;;;;20.55;14.35;;;20.90;99.90;;;;;;5072799;28;20201;-61
2023/06/30 06:38:16;;;;;;;18.48;12.55;;;21.00;99.90;;;;;;5072676;28;20312;-61
2023/06/30 06:40:44;;;;;;;14.52;10.75;;;20.90;99.90;;;;;;5073137;28;20663;-60
2023/06/30 06:43:12;;;;;;;13.82;9.43;;;20.90;99.90;;;;;;5072794;28;20231;-61
2023/06/30 06:45:41;;;;;;;9.98;7.65;;;20.80;99.90;;;;;;5072663;28;20232;-60
2023/06/30 06:48:23;;;;;;;11.43;8.90;;;20.80;99.90;;;;;;5072686;28;20225;-61
2023/06/30 06:50:52;;;;;;;10.20;7.05;;;20.80;99.90;;;;;;5073041;28;20201;-61
2023/06/30 06:53:21;;;;;;;9.27;6.93;;;20.90;99.90;;;;;;5072485;28;20201;-61
2023/06/30 06:55:49;;;;;;;7.22;6.50;;;20.90;99.90;;;;;;5072432;28;20205;-61
2023/06/30 06:58:17;;;;;;;6.82;6.05;;;20.90;99.90;;;;;;5072451;28;20650;-61
2023/06/30 07:00:45;;;;;;;8.25;6.45;;;20.80;99.90;;;;;;5072456;28;20679;-61
2023/06/30 07:03:13;;;;;;;7.88;5.75;;;20.90;99.90;;;;;;5072168;28;20287;-61
2023/06/30 07:05:43;;;;;;;7.47;5.43;;;20.90;99.90;;;;;;5072086;28;20274;-61
2023/06/30 07:08:12;;;;;;;7.50;4.93;;;21.00;99.90;;;;;;5072318;28;20248;-61
2023/06/30 07:10:40;;;;;;;8.43;4.47;;;21.00;99.90;;;;;;5072452;28;20196;-61
2023/06/30 07:13:08;;;;;;;5.20;3.72;;;21.00;99.90;;;;;;5072261;28;20292;-61
2023/06/30 07:15:36;;;;;;;3.85;3.55;;;21.10;99.90;;;;;;5067906;28;20255;-61
2023/06/30 07:18:04;;;;;;;4.55;3.15;;;21.10;99.90;;;;;;5078615;22;20288;-60
2023/06/30 07:20:32;;;;;;;4.47;2.63;;;21.10;99.90;;;;;;5032499;28;20276;-61
2023/06/30 07:23:02;;;;;;;2.30;2.20;;;21.20;99.90;;;;;;5032191;28;20249;-62
2023/06/30 07:25:29;;;;;;;2.72;2.53;;;21.20;99.90;;;;;;5031965;28;20557;-61
2023/06/30 07:27:58;;;;;;;2.95;2.53;;;21.30;99.90;;;;;;5032041;28;20249;-60
2023/06/30 07:30:26;;;;;;;5.35;2.25;;;21.30;99.90;;;;;;5032472;28;20202;-61
2023/06/30 07:32:54;;;;;;;2.33;1.95;;;21.40;99.90;;;;;;5032298;28;20221;-60
2023/06/30 07:35:22;;;;;;;1.80;1.80;;;21.40;99.90;;;;;;5031780;28;20224;-61
2023/06/30 07:37:50;;;;;;;2.22;2.10;;;21.40;99.90;;;;;;5031922;28;20209;-61
2023/06/30 07:40:19;;;;;;;2.13;2.13;;;21.30;99.90;;;;;;5031957;28;20303;-61
2023/06/30 07:42:50;;;;;;;2.38;2.28;;;21.20;99.90;;;;;;5031712;28;20229;-62
2023/06/30 07:45:18;;;;;;;2.65;2.42;;;21.20;99.90;;;;;;5031792;28;20245;-61
2023/06/30 07:47:47;;;;;;;4.18;3.03;;;21.10;99.90;;;;;;5032109;28;20289;-61
2023/06/30 07:50:16;;;;;;;2.83;2.45;;;21.00;99.90;;;;;;5031958;28;20249;-64
2023/06/30 07:52:45;;;;;;;3.78;2.78;;;20.90;99.90;;;;;;5031826;28;20292;-61
2023/06/30 07:55:13;;;;;;;2.38;2.10;;;20.90;99.90;;;;;;5031731;28;20237;-60
2023/06/30 07:57:43;;;;;;;2.50;2.08;;;20.80;99.90;;;;;;5031930;28;20293;-61
2023/06/30 08:00:15;;;;;;;2.00;2.00;;;20.80;99.90;;;;;;5031621;28;20745;-61
2023/06/30 08:02:42;;;;;;;2.20;2.00;;;20.80;99.90;;;;;;5031723;28;20268;-60
2023/06/30 08:05:10;;;;;;;1.75;1.60;;;20.70;99.90;;;;;;5031287;28;20309;-60
2023/06/30 08:07:38;;;;;;;1.45;1.45;;;20.70;99.90;;;;;;5031361;28;20255;-61
2023/06/30 08:10:17;;;;;;;1.38;1.38;;;20.70;99.90;;;;;;5031703;28;20223;-60
2023/06/30 08:12:47;;;;;;;1.60;1.60;;;20.70;99.90;;;;;;5031722;28;20198;-61
2023/06/30 08:15:15;;;;;;;1.52;1.42;;;20.60;99.90;;;;;;5031140;28;20238;-61
2023/06/30 08:17:42;;;;;;;1.42;1.00;;;20.60;99.90;;;;;;5031518;28;20228;-61
2023/06/30 08:20:21;;;;;;;1.02;1.02;;;20.50;99.90;;;;;;5031170;28;20571;-61
2023/06/30 08:22:49;;;;;;;1.33;1.30;;;20.40;99.90;;;;;;5031511;28;20608;-61
2023/06/30 08:25:17;;;;;;;1.10;1.10;;;20.30;99.90;;;;;;5031182;28;20289;-61
2023/06/30 08:27:46;;;;;;;1.52;1.40;;;20.30;99.90;;;;;;5031418;28;20240;-61
2023/06/30 08:30:15;;;;;;;1.20;1.10;;;20.40;99.90;;;;;;5034900;28;20205;-61
2023/06/30 08:32:43;;;;;;;1.40;1.30;;;20.40;99.90;;;;;;5035244;28;20230;-61
2023/06/30 08:35:11;;;;;;;1.35;1.27;;;20.40;99.90;;;;;;5034958;28;20703;-60
2023/06/30 08:37:38;;;;;;;1.05;1.05;;;20.40;99.90;;;;;;5035380;28;20685;-60
2023/06/30 08:40:08;;;;;;;1.02;1.02;;;20.40;99.90;;;;;;5035399;28;20217;-60
2023/06/30 08:42:36;;;;;;;0.80;0.80;;;20.40;99.90;;;;;;5035269;28;20654;-60
2023/06/30 08:45:07;;;;;;;1.20;1.10;;;20.30;99.90;;;;;;5034699;28;20654;-58
2023/06/30 08:47:35;;;;;;;1.08;1.08;;;20.30;99.90;;;;;;5019272;28;20237;-62
2023/06/30 08:50:03;;;;;;;1.38;1.27;;;20.40;99.90;;;;;;5035015;28;20233;-61
2023/06/30 08:52:31;;;;;;;2.38;0.82;;;20.50;99.90;;;;;;5035144;28;20241;-61
2023/06/30 08:55:01;;;;;;;0.70;0.70;;;20.50;99.90;;;;;;5034728;28;20240;-60
2023/06/30 08:57:29;;;;;;;1.25;0.77;;;20.50;99.90;;;;;;5034898;28;20202;-61
2023/06/30 08:59:59;;;;;;;3.33;1.00;;;20.40;99.90;;;;;;5035129;28;20618;-61
2023/06/30 09:02:29;;;;;;;1.38;1.02;;;20.50;99.90;;;;;;5035164;28;20252;-61
2023/06/30 09:04:57;;;;;;;3.88;0.90;;;20.40;99.90;;;;;;5034552;28;20222;-61
2023/06/30 09:07:26;;;;;;;1.23;0.98;;;20.40;99.90;;;;;;5034961;28;20206;-62
2023/06/30 09:09:55;;;;;;;0.70;0.70;;;20.40;99.90;;;;;;5034712;28;20232;-61
2023/06/30 09:12:23;;;;;;;1.63;0.80;;;20.40;99.90;;;;;;5035184;28;20209;-59
2023/06/30 09:14:50;;;;;;;0.85;0.85;;;20.50;99.90;;;;;;5034424;28;20293;-61
2023/06/30 09:17:18;;;;;;;1.00;0.73;;;20.50;99.90;;;;;;5034600;28;20681;-61
2023/06/30 09:19:48;;;;;;;1.10;0.95;;;20.50;99.90;;;;;;5034323;28;20368;-61
2023/06/30 09:22:16;;;;;;;1.10;0.80;;;20.50;99.90;;;;;;5034652;28;20232;-61
2023/06/30 09:25:04;;;;;;;0.90;0.90;;;20.40;99.90;;;;;;5034128;28;20222;-61
2023/06/30 09:27:34;;;;;;;2.53;0.70;;;20.40;99.90;;;;;;5034562;28;20245;-61
2023/06/30 09:30:03;;;;;;;1.13;0.80;;;20.30;99.90;;;;;;5034400;28;20226;-61
2023/06/30 09:32:31;;;;;;;0.70;0.70;;;20.30;99.90;;;;;;5034379;28;20238;-62
2023/06/30 09:35:06;;;;;;;2.63;0.85;;;20.30;99.90;;;;;;5033676;28;20281;-61
2023/06/30 09:37:41;;;;;;;0.73;0.70;;;20.20;99.90;;;;;;5034265;28;20251;-61
2023/06/30 09:40:12;;;;;;;1.15;0.60;;;20.20;99.90;;;;;;5033271;28;20688;-61
2023/06/30 09:42:41;;;;;;;0.70;0.70;;;20.20;99.90;;;;;;5034213;28;20240;-60
2023/06/30 09:45:10;;;;;;;1.15;0.70;;;20.20;99.90;;;;;;5033777;28;20253;-62
2023/06/30 09:47:38;;;;;;;4.65;0.90;;;20.30;99.90;;;;;;5016409;28;20210;-61
2023/06/30 09:50:08;;;;;;;0.77;0.77;;;20.40;99.90;;;;;;5033727;28;20668;-60
2023/06/30 09:52:37;;;;;;;0.75;0.75;;;20.50;99.90;;;;;;5034288;28;20741;-61
2023/06/30 09:55:09;;;;;;;1.17;1.13;;;20.60;99.90;;;;;;5033769;28;20398;-60
2023/06/30 09:57:39;;;;;;;1.98;0.57;;;20.70;99.90;;;;;;5017721;28;20630;-60
2023/06/30 10:00:08;;;;;;;2.22;0.73;;;20.80;99.90;;;;;;5033364;28;20713;-62
2023/06/30 10:03:01;;;;;;;3.53;0.73;;;20.90;99.90;;;;;;5034084;28;20214;-61
2023/06/30 10:05:31;;;;;;;1.42;0.70;;;21.00;99.90;;;;;;5033479;28;20883;-61
2023/06/30 10:07:59;;;;;;;0.80;0.80;;;21.10;99.90;;;;;;5033836;28;20202;-61
2023/06/30 10:10:27;;;;;;;2.13;0.82;;;21.10;99.90;;;;;;5033700;28;20632;-61
2023/06/30 10:12:55;;;;;;;2.55;0.73;;;21.10;99.90;;;;;;5033926;28;20284;-61
2023/06/30 10:15:23;;;;;;;1.50;0.80;;;21.10;99.90;;;;;;5033433;28;20281;-59
2023/06/30 10:17:51;;;;;;;0.68;0.68;;;21.00;99.90;;;;;;5033675;28;20566;-61
2023/06/30 10:20:19;;;;;;;0.77;0.77;;;21.00;99.90;;;;;;5033337;28;20214;-61
2023/06/30 10:22:56;;;;;;;2.70;0.60;;;21.00;99.90;;;;;;5033460;28;20665;-60
2023/06/30 10:25:25;;;;;;;0.70;0.70;;;21.00;99.90;;;;;;5033160;28;20264;-61
2023/06/30 10:27:52;;;;;;;1.23;1.08;;;21.00;99.90;;;;;;5033455;28;20237;-60
2023/06/30 10:30:20;;;;;;;1.30;1.20;;;20.90;99.90;;;;;;5033484;28;20289;-61
2023/06/30 10:32:48;;;;;;;1.15;1.00;;;20.80;99.90;;;;;;5032554;28;20256;-62
2023/06/30 10:35:17;;;;;;;0.80;0.80;;;20.80;99.90;;;;;;5035744;28;20229;-61
2023/06/30 10:37:44;;;;;;;0.70;0.70;;;20.70;99.90;;;;;;5032577;28;20245;-62
2023/06/30 10:40:25;;;;;;;1.05;1.05;;;20.60;99.90;;;;;;5032675;28;20284;-60
2023/06/30 10:42:54;;;;;;;1.10;1.00;;;20.60;99.90;;;;;;5033053;28;20201;-62
2023/06/30 10:45:30;;;;;;;1.02;0.90;;;20.40;99.90;;;;;;5032699;28;20281;-59
2023/06/30 10:47:58;;;;;;;2.97;1.23;;;20.40;99.90;;;;;;5032901;28;20208;-60
2023/06/30 10:50:26;;;;;;;1.30;1.10;;;20.30;99.90;;;;;;5033123;28;20199;-61
2023/06/30 10:52:54;;;;;;;1.27;1.25;;;20.30;99.90;;;;;;5032036;28;20213;-60
2023/06/30 10:55:23;;;;;;;1.30;1.20;;;20.40;99.90;;;;;;5032657;28;20233;-60
2023/06/30 10:57:53;;;;;;;2.60;1.52;;;20.30;99.90;;;;;;5032893;28;20206;-60
2023/06/30 11:00:22;;;;;;;5.78;1.52;;;20.30;99.90;;;;;;5032726;28;20297;-60
2023/06/30 11:02:50;;;;;;;2.28;1.50;;;20.30;99.90;;;;;;5032863;28;20241;-61
2023/06/30 11:05:20;;;;;;;3.42;1.70;;;20.30;99.90;;;;;;5032443;28;20305;-60
2023/06/30 11:07:49;;;;;;;2.05;1.60;;;20.40;99.90;;;;;;5032457;28;20688;-60
2023/06/30 11:10:27;;;;;;;3.38;1.50;;;20.40;99.90;;;;;;5032524;28;20233;-61
2023/06/30 11:12:57;;;;;;;1.60;1.50;;;20.40;99.90;;;;;;5032573;28;20198;-59
2023/06/30 11:15:26;;;;;;;3.03;1.50;;;20.40;99.90;;;;;;5032080;28;20206;-60
2023/06/30 11:18:03;;;;;;;1.38;1.27;;;20.40;99.90;;;;;;5032543;28;20233;-61
2023/06/30 11:20:31;;;;;;;1.88;1.50;;;20.50;99.90;;;;;;5032209;28;20559;-61
2023/06/30 11:23:00;;;;;;;1.20;1.15;;;20.60;99.90;;;;;;5032487;28;20289;-60
2023/06/30 11:25:29;;;;;;;2.58;1.23;;;20.60;99.90;;;;;;5031726;28;20222;-61
2023/06/30 11:28:00;;;;;;;2.72;1.48;;;20.70;99.90;;;;;;5032426;28;20198;-61
2023/06/30 11:30:28;;;;;;;1.50;1.40;;;20.90;99.90;;;;;;5032402;28;20272;-60
2023/06/30 11:32:58;;;;;;;2.47;1.63;;;21.20;99.90;;;;;;5032343;28;20240;-61
2023/06/30 11:35:26;;;;;;;2.10;1.30;;;21.60;99.90;;;;;;5031778;28;20198;-59
2023/06/30 11:37:54;;;;;;;2.15;1.60;;;21.90;99.90;;;;;;5032265;28;20834;-61
2023/06/30 11:40:22;;;;;;;1.10;1.05;;;22.20;99.90;;;;;;5034654;28;20217;-61
2023/06/30 11:42:51;;;;;;;1.15;1.15;;;22.30;99.90;;;;;;5031743;28;20202;-61
2023/06/30 11:45:21;;;;;;;1.10;1.00;;;22.80;99.90;;;;;;5030934;28;20669;-61
2023/06/30 11:47:51;;;;;;;0.98;0.98;;;23.20;99.90;;;;;;5031737;28;20590;-61
2023/06/30 11:50:19;;;;;;;1.15;1.10;;;23.60;99.90;;;;;;5031734;28;20210;-61
2023/06/30 11:52:48;;;;;;;0.98;0.90;;;23.90;99.90;;;;;;5031824;28;20744;-60
2023/06/30 11:55:16;;;;;;;1.60;1.33;;;24.20;99.90;;;;;;5031770;28;20210;-59
2023/06/30 11:57:46;;;;;;;3.88;1.38;;;24.70;99.90;;;;;;5031954;28;20257;-61
2023/06/30 12:00:16;;;;;;;2.47;0.98;;;25.00;99.90;;;;;;5031606;28;20201;-61
2023/06/30 12:02:46;;;;;;;1.98;0.82;;;25.40;99.90;;;;;;5031773;28;20202;-61
2023/06/30 12:05:21;;;;;;;1.02;0.60;;;25.50;99.90;;;;;;5028141;28;20229;-61
2023/06/30 12:07:50;;;;;;;2.15;1.00;;;25.60;99.90;;;;;;5030450;28;20221;-60
2023/06/30 12:10:18;;;;;;;1.08;1.02;;;25.70;99.90;;;;;;5031756;28;20698;-62
2023/06/30 12:12:53;;;;;;;0.90;0.90;;;25.80;99.90;;;;;;5033589;28;20237;-62
2023/06/30 12:15:22;;;;;;;1.38;1.25;;;25.80;99.90;;;;;;5030577;28;20650;-61
2023/06/30 12:17:54;;;;;;;1.50;1.40;;;25.90;99.90;;;;;;5030896;28;20248;-61
2023/06/30 12:20:22;;;;;;;1.85;1.10;;;26.00;99.90;;;;;;5031488;28;20230;-62
2023/06/30 12:22:53;;;;;;;3.22;0.98;;;26.00;99.90;;;;;;5031549;28;20206;-61
2023/06/30 12:25:21;;;;;;;1.38;1.00;;;26.30;99.90;;;;;;5031003;28;20230;-62
2023/06/30 12:27:49;;;;;;;4.25;1.17;;;26.70;99.90;;;;;;5030977;28;20229;-62
2023/06/30 12:30:17;;;;;;;1.33;1.33;;;27.10;99.90;;;;;;5031167;28;20210;-62
2023/06/30 12:32:45;;;;;;;2.38;1.10;;;27.20;99.90;;;;;;5030670;28;20244;-61
2023/06/30 12:35:15;;;;;;;2.15;1.45;;;27.00;99.90;;;;;;5031050;28;20206;-62
2023/06/30 12:37:44;;;;;;;1.95;1.10;;;27.00;99.90;;;;;;5031434;28;20236;-62
2023/06/30 12:40:13;;;;;;;1.50;1.40;;;27.30;99.90;;;;;;5030153;28;20216;-61
2023/06/30 12:42:47;;;;;;;1.00;1.00;;;27.70;99.90;;;;;;5029279;28;20205;-61
2023/06/30 12:45:15;;;;;;;2.25;1.48;;;27.90;99.90;;;;;;5029109;28;20264;-61
2023/06/30 12:47:43;;;;;;;5.18;1.10;;;27.70;99.90;;;;;;5030399;28;20202;-60
2023/06/30 12:50:11;;;;;;;1.10;0.98;;;27.50;99.90;;;;;;5030341;28;20198;-59